Time;durP1;ratioP1;P1;durP2;ratioP2;P2;SDS_P1;SDS_P2;PMS_P1;PMS_P2;Temp;Humidity;BMP_temperature;BMP_pressure;BME280_temperature;BME280_humidity;BME280_pressure;Samples;Min_cycle;Max_cycle;Signal;HPM_P1;HPM_P2
2022/02/26 00:00:21;;;;;;;8.07;1.33;;;20.80;15.10;;;;;;4988203;28;20500;-66
2022/02/26 00:02:48;;;;;;;6.55;1.17;;;20.70;15.40;;;;;;4988871;28;20133;-59
2022/02/26 00:05:14;;;;;;;10.40;1.98;;;20.70;15.20;;;;;;4971959;28;20436;-66
2022/02/26 00:07:41;;;;;;;10.88;1.30;;;20.60;15.60;;;;;;4988266;28;20067;-62
2022/02/26 00:10:08;;;;;;;17.30;2.55;;;20.60;15.50;;;;;;4988230;28;20601;-62
2022/02/26 00:12:34;;;;;;;6.50;1.63;;;20.50;15.80;;;;;;4988164;28;20091;-61
2022/02/26 00:15:00;;;;;;;8.70;1.90;;;20.50;15.80;;;;;;4988295;28;20082;-64
2022/02/26 00:17:28;;;;;;;12.32;4.38;;;20.40;16.00;;;;;;4989713;28;20536;-63
2022/02/26 00:19:55;;;;;;;9.38;1.98;;;20.30;16.60;;;;;;4988695;28;20123;-63
2022/02/26 00:22:21;;;;;;;;;;;20.20;22.00;;;;;;4987071;28;20143;-64
2022/02/26 00:24:47;;;;;;;10.25;2.35;;;19.80;21.10;;;;;;4986357;28;20386;-61
2022/02/26 00:27:13;;;;;;;8.68;1.60;;;19.40;18.50;;;;;;4987377;28;20067;-62
2022/02/26 00:29:40;;;;;;;10.82;2.00;;;18.90;26.10;;;;;;4986265;28;20465;-66
2022/02/26 00:32:07;;;;;;;13.05;1.80;;;18.40;29.70;;;;;;4991849;28;20113;-63
2022/02/26 00:34:35;;;;;;;5.18;1.30;;;18.10;26.20;;;;;;4958584;28;20181;-64
2022/02/26 00:37:01;;;;;;;6.55;1.98;;;18.00;24.10;;;;;;4993251;28;20097;-66
2022/02/26 00:39:28;;;;;;;7.80;1.55;;;18.00;21.90;;;;;;4991567;28;20075;-66
2022/02/26 00:41:54;;;;;;;13.70;1.58;;;18.00;21.40;;;;;;4990476;28;20596;-63
2022/02/26 00:44:20;;;;;;;;;;;18.00;20.60;;;;;;4992721;28;20510;-63
2022/02/26 00:46:46;;;;;;;7.80;1.60;;;18.00;20.30;;;;;;4990292;28;20045;-62
2022/02/26 00:51:59;;;;;;;7.30;1.20;;;18.00;19.20;;;;;;4975248;28;20078;-65
2022/02/26 00:54:25;;;;;;;3.13;1.15;;;18.00;19.60;;;;;;4988920;28;20102;-65
2022/02/26 00:56:52;;;;;;;7.60;1.30;;;18.00;19.20;;;;;;4973959;28;20078;-64
2022/02/26 00:59:18;;;;;;;10.02;2.55;;;18.10;19.20;;;;;;4990321;28;20066;-66
2022/02/26 01:01:45;;;;;;;16.15;5.35;;;18.00;19.00;;;;;;4973425;28;20090;-64
2022/02/26 01:04:11;;;;;;;7.03;2.28;;;18.00;19.30;;;;;;4991791;28;20082;-65
2022/02/26 01:06:37;;;;;;;9.55;3.72;;;18.00;18.40;;;;;;4989575;28;20082;-65
2022/02/26 01:09:04;;;;;;;;;;;18.00;17.90;;;;;;4990436;28;20099;-65
2022/02/26 01:11:31;;;;;;;11.35;3.25;;;17.90;18.70;;;;;;4988237;28;20334;-66
2022/02/26 01:13:58;;;;;;;6.65;2.20;;;17.90;18.30;;;;;;4990452;28;20153;-65
2022/02/26 01:16:25;;;;;;;5.25;2.72;;;17.80;19.30;;;;;;4991620;28;20078;-65
2022/02/26 01:18:52;;;;;;;8.55;2.83;;;17.80;20.10;;;;;;4974526;28;20528;-65
2022/02/26 01:21:21;;;;;;;8.50;2.10;;;17.80;20.20;;;;;;4972820;28;20145;-65
2022/02/26 01:23:51;;;;;;;7.63;2.05;;;17.70;20.30;;;;;;4993349;28;20194;-64
2022/02/26 01:26:18;;;;;;;6.97;1.92;;;17.60;21.50;;;;;;4989271;28;20181;-65
2022/02/26 01:28:46;;;;;;;14.15;3.00;;;17.50;22.20;;;;;;4989091;28;20520;-65
2022/02/26 01:31:13;;;;;;;8.48;3.00;;;17.40;19.80;;;;;;4991587;28;20087;-65
2022/02/26 01:33:40;;;;;;;9.77;2.75;;;17.40;20.00;;;;;;4991613;28;20079;-66
2022/02/26 01:36:07;;;;;;;7.32;2.10;;;17.30;19.50;;;;;;4991737;28;20090;-65
2022/02/26 01:38:34;;;;;;;15.48;9.15;;;17.20;19.90;;;;;;4992295;28;20136;-66
2022/02/26 01:41:00;;;;;;;24.23;13.95;;;17.10;21.40;;;;;;4991060;28;20082;-65
2022/02/26 01:43:27;;;;;;;30.45;16.38;;;17.10;22.90;;;;;;4973798;28;20087;-66
2022/02/26 01:45:54;;;;;;;26.17;11.30;;;17.00;22.80;;;;;;4975549;28;20604;-66
2022/02/26 01:48:20;;;;;;;24.05;9.00;;;16.90;22.50;;;;;;4973616;28;20079;-66
2022/02/26 01:50:47;;;;;;;15.35;6.53;;;16.80;24.10;;;;;;4990760;28;20101;-67
2022/02/26 01:53:14;;;;;;;29.70;6.15;;;16.70;23.80;;;;;;4989792;28;20110;-65
2022/02/26 01:55:41;;;;;;;18.73;3.90;;;16.70;23.80;;;;;;4973581;28;20115;-67
2022/02/26 01:58:07;;;;;;;19.20;5.13;;;16.60;24.00;;;;;;4990614;28;20102;-65
2022/02/26 02:00:33;;;;;;;;;;;16.50;24.50;;;;;;4992239;28;20073;-64
2022/02/26 02:02:59;;;;;;;13.10;4.25;;;16.40;26.40;;;;;;4991257;28;20022;-64
2022/02/26 02:05:27;;;;;;;19.02;4.50;;;16.20;26.00;;;;;;4991239;28;20157;-66
2022/02/26 02:07:54;;;;;;;12.20;4.00;;;16.10;26.70;;;;;;4990711;28;20079;-66
2022/02/26 02:10:21;;;;;;;13.45;3.97;;;16.00;26.80;;;;;;4991317;28;20141;-65
2022/02/26 02:12:47;;;;;;;24.88;4.32;;;15.90;27.60;;;;;;4987630;28;20202;-65
2022/02/26 02:15:14;;;;;;;18.27;4.50;;;15.80;27.00;;;;;;4973471;28;20098;-68
2022/02/26 02:17:44;;;;;;;17.42;4.05;;;15.60;28.00;;;;;;5005526;28;20161;-67
2022/02/26 02:20:11;;;;;;;17.20;3.90;;;15.50;28.90;;;;;;4989842;28;20479;-64
2022/02/26 02:22:38;;;;;;;18.10;5.03;;;15.40;29.60;;;;;;4973497;28;20230;-66
2022/02/26 02:25:12;;;;;;;35.25;5.05;;;15.30;29.90;;;;;;4990371;28;20170;-63
2022/02/26 02:27:39;;;;;;;19.48;4.07;;;15.20;30.00;;;;;;4988550;28;20075;-66
2022/02/26 02:30:06;;;;;;;29.05;4.65;;;15.10;29.90;;;;;;4989601;28;20067;-67
2022/02/26 02:32:32;;;;;;;33.60;4.07;;;15.10;29.80;;;;;;4989134;28;20456;-65
2022/02/26 02:34:58;;;;;;;;;;;15.00;29.80;;;;;;4987557;28;20082;-64
2022/02/26 02:37:24;;;;;;;32.25;5.38;;;14.90;29.50;;;;;;4973463;28;19962;-68
2022/02/26 02:39:50;;;;;;;;;;;14.80;30.40;;;;;;4989852;28;20533;-65
2022/02/26 02:42:17;;;;;;;27.60;4.28;;;14.70;30.00;;;;;;4988077;28;20030;-66
2022/02/26 02:44:43;;;;;;;;;;;14.70;28.70;;;;;;4990136;28;20082;-66
2022/02/26 02:47:10;;;;;;;18.83;4.68;;;14.60;29.80;;;;;;4973891;28;20332;-71
2022/02/26 02:49:36;;;;;;;;;;;14.60;29.80;;;;;;4989859;28;20418;-66
2022/02/26 02:52:02;;;;;;;21.17;4.90;;;14.40;29.40;;;;;;4984082;28;19966;-65
2022/02/26 02:54:29;;;;;;;21.23;4.90;;;14.40;29.20;;;;;;4989656;28;20075;-66
2022/02/26 02:56:55;;;;;;;26.77;5.03;;;14.30;29.10;;;;;;4989408;28;20102;-68
2022/02/26 02:59:21;;;;;;;;;;;14.30;28.30;;;;;;4988501;28;20153;-63
2022/02/26 03:01:48;;;;;;;24.80;5.50;;;14.20;29.00;;;;;;4989019;28;19958;-63
2022/02/26 03:04:14;;;;;;;24.42;5.95;;;14.10;28.60;;;;;;4988321;28;20102;-65
2022/02/26 03:06:44;;;;;;;30.00;6.25;;;14.10;28.60;;;;;;4989907;28;20198;-64
2022/02/26 03:09:10;;;;;;;29.38;6.25;;;14.00;29.30;;;;;;4973114;28;20086;-65
2022/02/26 03:11:37;;;;;;;32.05;6.50;;;13.90;29.10;;;;;;4989617;28;20076;-64
2022/02/26 03:14:03;;;;;;;;;;;13.90;29.00;;;;;;4992401;28;20114;-65
2022/02/26 03:16:29;;;;;;;40.30;6.80;;;13.80;29.30;;;;;;4989572;28;20428;-66
2022/02/26 03:18:56;;;;;;;43.47;8.05;;;13.70;29.80;;;;;;4989485;28;20492;-65
2022/02/26 03:21:22;;;;;;;60.95;8.40;;;13.70;29.80;;;;;;4989132;28;20114;-65
2022/02/26 03:23:49;;;;;;;40.78;8.13;;;13.60;30.00;;;;;;4985849;28;20433;-66
2022/02/26 03:26:15;;;;;;;;;;;13.60;30.00;;;;;;4989253;28;20083;-67
2022/02/26 03:28:41;;;;;;;45.53;8.75;;;13.60;31.20;;;;;;4989937;28;20379;-67
2022/02/26 03:31:07;;;;;;;51.85;8.95;;;13.50;31.10;;;;;;4988100;28;20109;-66
2022/02/26 03:33:33;;;;;;;;;;;13.50;31.50;;;;;;4988581;28;20532;-66
2022/02/26 03:36:00;;;;;;;47.83;8.70;;;13.50;32.20;;;;;;4987983;28;20374;-65
2022/02/26 03:38:26;;;;;;;46.17;9.00;;;13.40;32.80;;;;;;4987470;28;20077;-65
2022/02/26 03:40:53;;;;;;;57.97;8.32;;;13.30;30.90;;;;;;4986734;28;20093;-63
2022/02/26 03:43:19;;;;;;;;;;;13.20;31.00;;;;;;4987993;28;20651;-64
2022/02/26 03:45:45;;;;;;;49.38;9.35;;;13.20;31.80;;;;;;4987443;28;19970;-66
2022/02/26 03:48:12;;;;;;;55.22;11.18;;;13.20;32.20;;;;;;4988529;28;20129;-67
2022/02/26 03:50:40;;;;;;;72.47;11.65;;;13.10;31.60;;;;;;4972186;28;20074;-63
2022/02/26 03:53:08;;;;;;;53.58;10.98;;;13.00;30.50;;;;;;4989621;28;20488;-63
2022/02/26 03:55:35;;;;;;;67.03;11.00;;;13.00;31.50;;;;;;4987895;28;20521;-64
2022/02/26 03:58:02;;;;;;;75.40;12.45;;;13.00;32.50;;;;;;4987950;28;20125;-64
2022/02/26 04:00:28;;;;;;;63.50;11.27;;;13.00;32.40;;;;;;4988983;28;20146;-67
2022/02/26 04:02:54;;;;;;;62.58;11.82;;;13.00;32.00;;;;;;4973259;28;20097;-65
2022/02/26 04:05:21;;;;;;;;;;;12.90;31.90;;;;;;4990094;28;20533;-64
2022/02/26 04:07:47;;;;;;;81.53;12.27;;;12.80;30.70;;;;;;4991688;28;20396;-67
2022/02/26 04:10:13;;;;;;;;;;;12.80;31.00;;;;;;4986423;28;20091;-65
2022/02/26 04:12:40;;;;;;;59.08;12.45;;;12.70;31.90;;;;;;4987783;28;20009;-64
2022/02/26 04:15:07;;;;;;;79.80;14.10;;;12.70;32.40;;;;;;4989881;28;20089;-66
2022/02/26 04:17:33;;;;;;;93.13;13.23;;;12.70;32.40;;;;;;4988463;28;20142;-64
2022/02/26 04:19:59;;;;;;;;;;;12.70;32.90;;;;;;4988444;28;20111;-67
2022/02/26 04:22:25;;;;;;;85.50;14.80;;;12.60;32.00;;;;;;4988336;28;20456;-62
2022/02/26 04:24:52;;;;;;;;;;;12.60;32.50;;;;;;4988237;28;20098;-67
2022/02/26 04:27:18;;;;;;;104.80;19.38;;;12.60;31.80;;;;;;4987848;28;19965;-66
2022/02/26 04:29:44;;;;;;;87.57;18.40;;;12.60;31.00;;;;;;4988057;28;20089;-64
2022/02/26 04:32:10;;;;;;;;;;;12.60;31.80;;;;;;4987321;28;20079;-65
2022/02/26 04:34:37;;;;;;;101.32;21.85;;;12.60;31.40;;;;;;4987027;28;20474;-65
2022/02/26 04:37:03;;;;;;;101.53;21.27;;;12.50;31.60;;;;;;4986723;28;20440;-65
2022/02/26 04:39:30;;;;;;;94.43;23.02;;;12.40;31.90;;;;;;4987297;28;20078;-65
2022/02/26 04:41:56;;;;;;;101.28;22.92;;;12.40;32.30;;;;;;4987052;28;20083;-65
2022/02/26 04:44:22;;;;;;;;;;;12.40;32.70;;;;;;4972191;28;20087;-65
2022/02/26 04:46:49;;;;;;;103.78;23.90;;;12.40;32.70;;;;;;4986752;28;20041;-67
2022/02/26 04:49:15;;;;;;;;;;;12.30;32.40;;;;;;4989354;28;20082;-65
2022/02/26 04:51:41;;;;;;;117.57;28.95;;;12.30;31.80;;;;;;4985518;28;19959;-69
2022/02/26 04:54:08;;;;;;;128.25;31.63;;;12.30;33.60;;;;;;4988090;28;20094;-65
2022/02/26 04:56:34;;;;;;;;;;;12.40;33.40;;;;;;4986830;28;20164;-65
2022/02/26 04:59:00;;;;;;;121.53;30.27;;;12.30;33.10;;;;;;4986684;28;19966;-64
2022/02/26 05:01:27;;;;;;;115.55;31.13;;;12.20;32.70;;;;;;4986367;28;20075;-66
2022/02/26 05:03:53;;;;;;;;;;;12.20;33.10;;;;;;4972119;28;20087;-67
2022/02/26 05:06:19;;;;;;;139.02;33.25;;;12.20;32.70;;;;;;4988263;28;19997;-66
2022/02/26 05:08:47;;;;;;;132.80;32.15;;;12.20;32.80;;;;;;4987136;28;20107;-67
2022/02/26 05:11:13;;;;;;;116.28;31.73;;;12.20;33.40;;;;;;4986622;28;20595;-69
2022/02/26 05:13:39;;;;;;;;;;;12.20;33.90;;;;;;4986619;28;20098;-65
2022/02/26 05:16:06;;;;;;;130.98;29.90;;;12.10;34.20;;;;;;4988064;28;20499;-66
2022/02/26 05:18:32;;;;;;;;;;;12.10;34.10;;;;;;4975803;28;20091;-65
2022/02/26 05:20:58;;;;;;;128.27;31.55;;;12.00;33.40;;;;;;4988336;28;20000;-68
2022/02/26 05:23:24;;;;;;;;;;;12.00;33.10;;;;;;4988795;28;20137;-67
2022/02/26 05:25:51;;;;;;;133.25;31.92;;;12.00;33.50;;;;;;4990302;28;20013;-66
